createdAt,value
2022-09-04T00:03:23.305Z,71.37
2022-09-04T00:08:59.891Z,71.72
2022-09-04T00:14:30.118Z,72.41
2022-09-04T00:20:12.940Z,72.71
2022-09-04T00:25:58.185Z,72.88
2022-09-04T00:31:43.884Z,72.51
2022-09-04T00:37:13.027Z,72.45
2022-09-04T00:42:49.541Z,72.57
2022-09-04T00:48:38.056Z,73.03
2022-09-04T00:54:31.042Z,73.56
2022-09-04T01:00:10.249Z,73.66
2022-09-04T01:05:50.213Z,74.07
2022-09-04T01:11:29.538Z,74.43
2022-09-04T01:17:28.006Z,73.58
2022-09-04T01:23:00.890Z,74.44
2022-09-04T01:28:46.133Z,74.78
2022-09-04T01:34:30.435Z,74.34
2022-09-04T01:39:57.947Z,74.58
2022-09-04T01:45:36.030Z,74.99
2022-09-04T01:51:01.697Z,75.16
2022-09-04T01:56:43.959Z,75.14
2022-09-04T02:02:14.721Z,75.25
2022-09-04T02:08:20.285Z,75.73
2022-09-04T02:14:08.209Z,76.19
2022-09-04T02:19:44.223Z,76.17
2022-09-04T02:25:29.344Z,76.60
2022-09-04T02:36:47.715Z,77.28
2022-09-04T02:42:25.187Z,77.34
2022-09-04T02:48:11.099Z,78.09
2022-09-04T02:54:16.152Z,78.84
2022-09-04T03:00:11.824Z,79.52
2022-09-04T03:05:43.362Z,80.06
2022-09-04T03:11:19.446Z,80.11
2022-09-04T03:22:51.685Z,80.19
2022-09-04T03:28:15.785Z,80.97
2022-09-04T03:33:45.647Z,81.46
2022-09-04T03:39:31.062Z,81.79
2022-09-04T03:44:58.206Z,81.64
2022-09-04T03:50:53.120Z,81.57
2022-09-04T03:56:38.019Z,81.86
2022-09-04T04:02:42.438Z,82.26
2022-09-04T04:08:26.344Z,82.68
2022-09-04T04:14:21.915Z,83.24
2022-09-04T04:20:11.259Z,83.26
2022-09-04T04:26:13.208Z,83.33
2022-09-04T04:32:13.874Z,83.52
2022-09-04T04:37:44.290Z,83.37
2022-09-04T04:43:17.527Z,83.20
2022-09-04T04:49:13.722Z,82.95
2022-09-04T04:55:03.653Z,82.37
2022-09-04T05:00:42.042Z,81.52
2022-09-04T05:06:29.912Z,80.65
2022-09-04T05:12:03.237Z,79.79
2022-09-04T05:17:33.199Z,79.24
2022-09-04T05:23:28.725Z,78.85
2022-09-04T05:29:30.470Z,78.01
2022-09-04T05:35:12.932Z,77.08
2022-09-04T05:41:11.837Z,76.32
2022-09-04T05:47:04.789Z,75.72
2022-09-04T05:52:53.103Z,75.00
2022-09-04T05:58:41.358Z,74.53
2022-09-04T06:04:35.758Z,73.93
2022-09-04T06:10:24.615Z,73.49
2022-09-04T06:15:58.327Z,72.98
2022-09-04T06:21:49.242Z,72.40
2022-09-04T06:27:26.266Z,72.14
2022-09-04T06:33:08.343Z,71.03
2022-09-04T06:39:09.904Z,70.40
2022-09-04T06:44:42.751Z,69.78
2022-09-04T06:50:33.888Z,69.11
2022-09-04T06:56:27.005Z,68.95
2022-09-04T07:01:56.780Z,68.39
2022-09-04T07:07:32.335Z,67.33
2022-09-04T07:13:31.920Z,66.73
2022-09-04T07:19:27.883Z,65.56
2022-09-04T07:25:23.886Z,64.66
2022-09-04T07:30:56.828Z,65.11
2022-09-04T07:36:33.217Z,65.00
2022-09-04T07:48:36.380Z,63.03
2022-09-04T07:54:27.062Z,63.10
2022-09-04T08:00:11.140Z,62.06
2022-09-04T08:05:48.750Z,61.00
2022-09-04T08:11:28.060Z,60.14
2022-09-04T08:17:01.083Z,58.89
2022-09-04T08:22:28.456Z,59.25
2022-09-04T08:28:11.023Z,58.25
2022-09-04T08:34:15.863Z,56.70
2022-09-04T08:39:50.996Z,55.63
2022-09-04T08:45:27.837Z,54.43
2022-09-04T08:51:00.765Z,53.82
2022-09-04T08:56:55.511Z,52.81
2022-09-04T09:02:58.644Z,52.68
2022-09-04T09:08:44.461Z,52.49
2022-09-04T09:14:21.084Z,51.51
2022-09-04T09:20:14.832Z,49.90
2022-09-04T09:25:48.994Z,48.98
2022-09-04T09:31:35.900Z,48.51
2022-09-04T09:37:19.443Z,48.36
2022-09-04T09:42:55.198Z,47.39
2022-09-04T09:48:59.746Z,46.49
2022-09-04T09:54:47.927Z,43.65
2022-09-04T10:00:27.879Z,40.76
2022-09-04T10:06:12.041Z,39.42
2022-09-04T10:12:07.361Z,37.39
2022-09-04T10:17:58.732Z,37.10
2022-09-04T10:23:55.912Z,36.41
2022-09-04T10:29:51.415Z,35.16
2022-09-04T10:35:58.589Z,35.44
2022-09-04T10:41:32.119Z,35.42
2022-09-04T10:47:35.171Z,35.09
2022-09-04T10:53:47.036Z,34.29
2022-09-04T10:59:58.979Z,34.62
2022-09-04T11:06:00.292Z,34.50
2022-09-04T11:11:54.729Z,34.02
2022-09-04T11:17:57.454Z,34.40
2022-09-04T11:23:47.281Z,33.34
2022-09-04T11:29:18.399Z,32.69
2022-09-04T11:35:24.464Z,31.63
2022-09-04T11:41:16.492Z,31.63
2022-09-04T11:47:04.585Z,32.05
2022-09-04T11:53:09.350Z,32.40
2022-09-04T11:58:55.807Z,31.28
2022-09-04T12:04:26.524Z,30.92
2022-09-04T12:10:45.135Z,30.59
2022-09-04T12:16:39.952Z,29.58
2022-09-04T12:22:24.147Z,29.78
2022-09-04T12:28:15.548Z,30.26
2022-09-04T12:33:48.952Z,31.39
2022-09-04T12:39:49.615Z,33.70
2022-09-04T12:45:37.312Z,35.29
2022-09-04T12:51:23.926Z,32.84
2022-09-04T12:57:09.734Z,30.92
2022-09-04T13:02:52.139Z,28.52
2022-09-04T13:08:38.886Z,28.00
2022-09-04T13:14:41.133Z,29.37
2022-09-04T13:20:46.863Z,28.39
2022-09-04T13:26:54.955Z,26.93
2022-09-04T13:32:47.874Z,27.67
2022-09-04T13:38:39.222Z,28.13
2022-09-04T13:50:29.803Z,27.07
2022-09-04T13:56:10.271Z,28.33
2022-09-04T14:01:36.379Z,27.58
2022-09-04T14:07:03.298Z,28.57
2022-09-04T14:12:46.656Z,30.21
2022-09-04T14:18:20.896Z,28.72
2022-09-04T14:24:06.154Z,27.88
2022-09-04T14:29:44.714Z,28.20
2022-09-04T14:35:35.615Z,28.61
2022-09-04T14:41:21.325Z,28.86
2022-09-04T14:47:09.843Z,28.56
2022-09-04T14:53:01.865Z,28.09
2022-09-04T14:58:48.942Z,29.15
2022-09-04T15:04:21.344Z,28.41
2022-09-04T15:10:00.166Z,30.95
2022-09-04T15:15:46.996Z,29.99
2022-09-04T15:21:21.437Z,29.14
2022-09-04T15:26:57.123Z,28.92
2022-09-04T15:38:21.587Z,28.99
2022-09-04T15:43:57.695Z,29.20
2022-09-04T15:49:49.303Z,28.86
2022-09-04T15:55:23.079Z,29.86
2022-09-04T16:00:49.985Z,30.29
2022-09-04T16:06:23.899Z,30.36
2022-09-04T16:12:04.797Z,30.68
2022-09-04T16:17:40.267Z,30.60
2022-09-04T16:23:21.687Z,31.28
2022-09-04T16:28:55.386Z,31.03
2022-09-04T16:34:22.503Z,31.02
2022-09-04T16:39:56.277Z,31.76
2022-09-04T16:45:39.058Z,32.61
2022-09-04T16:51:39.319Z,34.01
2022-09-04T16:57:12.383Z,34.75
2022-09-04T17:02:52.142Z,34.89
2022-09-04T17:08:30.891Z,34.96
2022-09-04T17:14:35.162Z,36.50
2022-09-04T17:20:14.252Z,38.75
2022-09-04T17:29:09.210Z,41.19
2022-09-04T17:31:36.491Z,43.27
2022-09-04T17:40:40.274Z,44.75
2022-09-04T17:43:15.843Z,45.38
2022-09-04T17:48:38.594Z,45.98
2022-09-04T17:54:06.133Z,46.50
2022-09-04T17:59:36.503Z,47.29
2022-09-04T18:05:34.234Z,47.25
2022-09-04T18:11:06.786Z,46.77
2022-09-04T18:16:50.383Z,46.26
2022-09-04T18:22:33.324Z,46.78
2022-09-04T18:28:20.260Z,47.58
2022-09-04T18:37:21.332Z,47.58
2022-09-04T18:39:45.513Z,47.53
2022-09-04T18:50:22.008Z,47.58
2022-09-04T18:51:21.377Z,47.55
2022-09-04T18:57:06.746Z,47.53
2022-09-04T19:02:43.037Z,47.44
2022-09-04T19:08:14.582Z,47.22
2022-09-04T19:13:39.734Z,47.67
2022-09-04T19:19:29.225Z,48.40
2022-09-04T19:25:06.324Z,48.00
2022-09-04T19:30:39.385Z,47.98
2022-09-04T19:36:08.224Z,48.43
2022-09-04T19:46:03.738Z,48.85
2022-09-04T19:47:37.725Z,48.22
2022-09-04T19:53:32.364Z,47.77
2022-09-04T19:58:33.056Z,48.63
2022-09-04T20:04:02.305Z,48.82
2022-09-04T20:09:33.075Z,48.48
2022-09-04T20:15:01.155Z,48.56
2022-09-04T20:20:33.640Z,49.29
2022-09-04T20:26:15.300Z,49.54
2022-09-04T20:31:49.580Z,50.08
2022-09-04T20:37:36.492Z,50.34
2022-09-04T20:43:36.593Z,51.17
2022-09-04T20:52:53.681Z,52.24
2022-09-04T20:55:11.516Z,53.51
2022-09-04T21:03:08.103Z,53.92
2022-09-04T21:06:22.897Z,54.76
2022-09-04T21:11:55.985Z,55.32
2022-09-04T21:17:35.811Z,55.53
2022-09-04T21:23:06.177Z,55.75
2022-09-04T21:28:50.359Z,55.42
2022-09-04T21:34:26.266Z,55.83
2022-09-04T21:40:33.619Z,55.94
2022-09-04T21:46:05.923Z,56.06
2022-09-04T21:51:46.564Z,56.33
2022-09-04T22:02:31.969Z,56.62
2022-09-04T22:03:18.079Z,57.05
2022-09-04T22:13:30.445Z,57.41
2022-09-04T22:14:54.468Z,57.68
2022-09-04T22:20:55.375Z,58.16
2022-09-04T22:26:43.331Z,58.04
2022-09-04T22:32:31.639Z,58.50
2022-09-04T22:38:15.086Z,58.92
2022-09-04T22:43:47.267Z,59.68
2022-09-04T22:49:26.431Z,60.36
2022-09-04T22:55:29.583Z,60.96
2022-09-04T23:00:36.549Z,61.95
2022-09-04T23:06:54.380Z,62.87
2022-09-04T23:14:01.501Z,63.42
2022-09-04T23:21:12.212Z,63.71
2022-09-04T23:26:41.908Z,64.45
2022-09-04T23:29:51.639Z,64.62
2022-09-04T23:35:52.808Z,64.90
2022-09-04T23:42:00.275Z,65.10
2022-09-04T23:48:21.437Z,65.60
2022-09-04T23:54:25.019Z,66.32
